Time;durP1;ratioP1;P1;durP2;ratioP2;P2;SDS_P1;SDS_P2;PMS_P1;PMS_P2;Temp;Humidity;BMP_temperature;BMP_pressure;BME280_temperature;BME280_humidity;BME280_pressure;Samples;Min_cycle;Max_cycle;Signal;HPM_P1;HPM_P2
2023/03/08 00:00:18;;;;;;;7.80;2.42;;;6.20;99.90;;;;;;4990899;28;20516;-71
2023/03/08 00:02:43;;;;;;;3.35;1.77;;;6.20;99.90;;;;;;4986306;28;20068;-71
2023/03/08 00:05:10;;;;;;;6.80;3.58;;;6.10;99.90;;;;;;4985456;28;20061;-71
2023/03/08 00:07:36;;;;;;;7.28;2.88;;;6.10;99.90;;;;;;4988741;28;20037;-71
2023/03/08 00:10:03;;;;;;;3.90;2.00;;;6.10;99.90;;;;;;4986773;28;20553;-71
2023/03/08 00:12:29;;;;;;;4.07;2.35;;;6.20;99.90;;;;;;4998430;28;20030;-70
2023/03/08 00:14:55;;;;;;;5.78;2.05;;;6.20;99.90;;;;;;4978129;28;20077;-71
2023/03/08 00:17:21;;;;;;;8.63;2.00;;;6.10;99.90;;;;;;4976417;28;20150;-71
2023/03/08 00:19:46;;;;;;;9.68;2.78;;;6.10;99.90;;;;;;4976303;28;20038;-71
2023/03/08 00:22:12;;;;;;;4.00;2.72;;;6.10;99.90;;;;;;4980618;28;20481;-70
2023/03/08 00:24:38;;;;;;;5.65;2.47;;;6.20;99.90;;;;;;4978802;28;20038;-71
2023/03/08 00:27:04;;;;;;;5.82;2.70;;;6.10;99.90;;;;;;4990004;28;20034;-71
2023/03/08 00:29:30;;;;;;;8.68;2.83;;;6.20;99.90;;;;;;4990362;28;20192;-71
2023/03/08 00:31:56;;;;;;;7.57;3.28;;;6.10;99.90;;;;;;5001810;28;20035;-71
2023/03/08 00:34:22;;;;;;;10.57;3.53;;;6.10;99.90;;;;;;5002659;28;20131;-71
2023/03/08 00:36:47;;;;;;;4.70;2.15;;;6.10;99.90;;;;;;4984987;28;20039;-71
2023/03/08 00:39:15;;;;;;;5.30;2.60;;;6.10;99.90;;;;;;4990327;28;20026;-71
2023/03/08 00:41:41;;;;;;;5.28;2.08;;;6.10;99.90;;;;;;4989772;28;20022;-70
2023/03/08 00:44:07;;;;;;;5.63;2.17;;;6.10;99.90;;;;;;4992282;28;20105;-71
2023/03/08 00:46:33;;;;;;;8.23;3.60;;;6.10;99.90;;;;;;4992844;28;20046;-69
2023/03/08 00:48:59;;;;;;;5.30;3.03;;;6.10;99.90;;;;;;4982681;28;20110;-70
2023/03/08 00:51:25;;;;;;;6.38;2.22;;;6.00;99.90;;;;;;4988253;28;20030;-70
2023/03/08 00:53:51;;;;;;;5.93;2.63;;;6.00;99.90;;;;;;4984810;28;20112;-70
2023/03/08 00:56:17;;;;;;;4.63;2.20;;;6.00;99.90;;;;;;4989444;28;20474;-70
2023/03/08 00:58:43;;;;;;;8.02;2.83;;;6.00;99.90;;;;;;4989515;28;20030;-70
2023/03/08 01:01:16;;;;;;;5.70;3.08;;;6.00;99.90;;;;;;4986573;28;20514;-70
2023/03/08 01:03:42;;;;;;;8.10;2.65;;;6.00;99.90;;;;;;5001466;28;20561;-70
2023/03/08 01:06:12;;;;;;;9.00;3.70;;;5.90;99.90;;;;;;4993100;28;20423;-70
2023/03/08 01:08:40;;;;;;;7.20;2.95;;;5.80;99.90;;;;;;4991216;28;20033;-70
2023/03/08 01:11:14;;;;;;;9.18;2.47;;;5.90;99.90;;;;;;4979566;28;20105;-71
2023/03/08 01:13:39;;;;;;;8.85;3.00;;;5.70;99.90;;;;;;5003851;28;20082;-69
2023/03/08 01:16:13;;;;;;;6.38;2.85;;;5.70;99.90;;;;;;4984945;28;20042;-70
2023/03/08 01:18:38;;;;;;;8.40;3.25;;;5.60;99.90;;;;;;5008842;23;20526;-69
2023/03/08 01:21:04;;;;;;;7.72;2.75;;;5.60;99.90;;;;;;4972543;28;20031;-69
2023/03/08 01:23:31;;;;;;;4.68;2.25;;;5.60;99.90;;;;;;4972749;28;20034;-69
2023/03/08 01:26:07;;;;;;;10.25;3.17;;;5.70;99.90;;;;;;4971850;28;20038;-70
2023/03/08 01:28:33;;;;;;;5.43;2.67;;;5.60;99.90;;;;;;4954138;28;20030;-69
2023/03/08 01:31:20;;;;;;;8.98;3.15;;;5.60;99.90;;;;;;4969477;28;20027;-70
2023/03/08 01:33:47;;;;;;;6.25;3.95;;;5.60;99.90;;;;;;4952717;28;20035;-70
2023/03/08 01:36:17;;;;;;;5.57;2.08;;;5.60;99.90;;;;;;4969593;28;20530;-70
2023/03/08 01:38:43;;;;;;;8.63;3.30;;;5.60;99.90;;;;;;4952587;28;20035;-70
2023/03/08 01:41:24;;;;;;;12.13;2.42;;;5.70;99.90;;;;;;4967624;28;20057;-70
2023/03/08 01:43:50;;;;;;;4.80;2.45;;;5.70;99.90;;;;;;4953963;28;20499;-70
2023/03/08 01:46:36;;;;;;;4.85;2.28;;;5.60;99.90;;;;;;4969411;28;20031;-70
2023/03/08 01:49:26;;;;;;;4.82;2.47;;;5.60;99.90;;;;;;4954607;28;20134;-70
2023/03/08 01:52:07;;;;;;;13.13;3.60;;;5.70;99.90;;;;;;4964830;28;20027;-70
2023/03/08 01:55:01;;;;;;;6.25;3.08;;;5.70;99.90;;;;;;4958638;28;20380;-70
2023/03/08 01:57:54;;;;;;;4.88;2.53;;;5.70;99.90;;;;;;4965533;28;20047;-70
2023/03/08 02:00:23;;;;;;;6.85;3.60;;;5.70;99.90;;;;;;4963604;28;20039;-70
2023/03/08 02:02:58;;;;;;;7.38;2.88;;;5.70;99.90;;;;;;4955458;28;20087;-70
2023/03/08 02:05:25;;;;;;;10.63;2.60;;;5.70;99.90;;;;;;4959723;28;20108;-71
2023/03/08 02:07:51;;;;;;;8.23;3.17;;;5.70;99.90;;;;;;4970301;28;20486;-70
2023/03/08 02:10:18;;;;;;;11.85;3.22;;;5.80;99.90;;;;;;4967145;28;20035;-69
2023/03/08 02:12:44;;;;;;;9.82;2.55;;;5.80;99.90;;;;;;4972133;28;20133;-70
2023/03/08 02:15:16;;;;;;;6.93;3.42;;;5.70;99.90;;;;;;4964640;28;20031;-70
2023/03/08 02:17:43;;;;;;;7.00;2.42;;;5.70;99.90;;;;;;4971048;28;20150;-70
2023/03/08 02:20:34;;;;;;;4.95;2.40;;;5.70;99.90;;;;;;4963655;28;20411;-70
2023/03/08 02:23:14;;;;;;;8.48;2.53;;;5.70;99.90;;;;;;4986989;28;20041;-70
2023/03/08 02:25:48;;;;;;;7.03;2.85;;;5.80;99.90;;;;;;4966976;28;20065;-70
2023/03/08 02:28:15;;;;;;;12.13;3.70;;;5.80;99.90;;;;;;4951741;28;20483;-70
2023/03/08 02:30:40;;;;;;;5.47;2.00;;;5.80;99.90;;;;;;4966751;28;20502;-69
2023/03/08 02:33:06;;;;;;;7.72;2.53;;;5.80;99.90;;;;;;4953993;28;20027;-70
2023/03/08 02:35:32;;;;;;;7.13;3.63;;;5.70;99.90;;;;;;4966113;28;20065;-69
2023/03/08 02:37:58;;;;;;;10.45;3.03;;;5.70;99.90;;;;;;4955205;28;20038;-69
2023/03/08 02:40:24;;;;;;;4.95;2.15;;;5.60;99.90;;;;;;4963545;28;20070;-69
2023/03/08 02:42:50;;;;;;;7.47;3.30;;;5.60;99.90;;;;;;4971894;28;20100;-69
2023/03/08 02:45:16;;;;;;;6.65;2.97;;;5.50;99.90;;;;;;4965296;28;20599;-70
2023/03/08 02:47:41;;;;;;;5.38;3.15;;;5.60;99.90;;;;;;4955879;28;20499;-69
2023/03/08 02:50:08;;;;;;;7.53;3.40;;;5.60;99.90;;;;;;4962482;28;20063;-69
2023/03/08 02:52:34;;;;;;;6.97;2.70;;;5.50;99.90;;;;;;4958390;28;20915;-69
2023/03/08 02:55:00;;;;;;;3.65;2.10;;;5.50;99.90;;;;;;4961801;28;20035;-69
2023/03/08 02:57:25;;;;;;;8.27;3.08;;;5.50;99.90;;;;;;4959015;28;20036;-69
2023/03/08 02:59:51;;;;;;;9.55;2.88;;;5.50;99.90;;;;;;4960534;28;20050;-69
2023/03/08 03:02:17;;;;;;;6.90;3.58;;;5.60;99.90;;;;;;4964090;28;20034;-70
2023/03/08 03:04:43;;;;;;;4.93;2.70;;;5.50;99.90;;;;;;4966889;28;20110;-69
2023/03/08 03:07:08;;;;;;;9.00;3.45;;;5.50;99.90;;;;;;4965289;28;20471;-69
2023/03/08 03:09:35;;;;;;;10.20;3.17;;;5.50;99.90;;;;;;4961970;28;20049;-69
2023/03/08 03:12:00;;;;;;;5.22;2.40;;;5.40;99.90;;;;;;4966123;28;20046;-69
2023/03/08 03:14:27;;;;;;;7.85;3.50;;;5.30;99.90;;;;;;4959315;28;20483;-69
2023/03/08 03:16:53;;;;;;;8.98;3.45;;;5.10;99.90;;;;;;4975621;28;20026;-69
2023/03/08 03:19:19;;;;;;;8.52;3.85;;;5.00;99.90;;;;;;4968896;28;20110;-69
2023/03/08 03:21:45;;;;;;;8.93;3.80;;;5.00;99.90;;;;;;4968148;28;20439;-69
2023/03/08 03:24:11;;;;;;;6.03;3.78;;;5.00;99.90;;;;;;4957442;28;20547;-69
2023/03/08 03:26:37;;;;;;;9.02;3.10;;;5.00;99.90;;;;;;4969008;28;20050;-69
2023/03/08 03:29:03;;;;;;;6.18;3.03;;;5.00;99.90;;;;;;4957496;28;20027;-69
2023/03/08 03:31:29;;;;;;;6.32;2.20;;;5.10;99.90;;;;;;4970160;28;20031;-69
2023/03/08 03:33:56;;;;;;;6.93;3.40;;;5.10;99.90;;;;;;4956535;28;20070;-69
2023/03/08 03:36:22;;;;;;;4.82;2.08;;;5.10;99.90;;;;;;4970039;28;20028;-68
2023/03/08 03:38:49;;;;;;;6.35;2.63;;;5.10;99.90;;;;;;4955919;28;20031;-69
2023/03/08 03:41:20;;;;;;;10.18;3.10;;;5.10;99.90;;;;;;5005711;28;20034;-68
2023/03/08 03:43:47;;;;;;;4.57;2.15;;;5.00;99.90;;;;;;4951988;29;20101;-69
2023/03/08 03:46:17;;;;;;;8.57;3.22;;;5.00;99.90;;;;;;4970159;28;20035;-68
2023/03/08 03:48:44;;;;;;;7.00;3.22;;;4.90;99.90;;;;;;4954653;28;20054;-69
2023/03/08 03:51:17;;;;;;;9.45;3.45;;;4.90;99.90;;;;;;4970104;28;20022;-70
2023/03/08 03:53:43;;;;;;;4.25;2.33;;;5.00;99.90;;;;;;4938805;29;20029;-69
2023/03/08 03:56:18;;;;;;;9.07;2.92;;;5.00;99.90;;;;;;4971233;28;20038;-68
2023/03/08 03:58:45;;;;;;;6.20;3.20;;;4.90;99.90;;;;;;4954277;28;20054;-69
2023/03/08 04:01:23;;;;;;;5.43;2.60;;;5.00;99.90;;;;;;4971137;28;20038;-69
2023/03/08 04:03:50;;;;;;;5.22;3.00;;;4.90;99.90;;;;;;4955664;28;20398;-69
2023/03/08 04:06:31;;;;;;;7.63;3.35;;;4.90;99.90;;;;;;4985942;28;20491;-70
2023/03/08 04:09:01;;;;;;;14.63;4.80;;;5.00;99.90;;;;;;4954314;28;20031;-70
2023/03/08 04:11:33;;;;;;;8.60;3.27;;;4.90;99.90;;;;;;4969639;28;20019;-70
2023/03/08 04:13:59;;;;;;;5.18;2.78;;;4.90;99.90;;;;;;4955228;28;20496;-69
2023/03/08 04:16:32;;;;;;;11.10;2.38;;;4.90;99.90;;;;;;4973509;28;20037;-69
2023/03/08 04:19:02;;;;;;;7.32;2.88;;;4.90;99.90;;;;;;4967759;28;20155;-71
2023/03/08 04:21:29;;;;;;;7.50;2.85;;;4.90;99.90;;;;;;4968190;28;20031;-69
2023/03/08 04:23:55;;;;;;;5.22;2.35;;;4.90;99.90;;;;;;4955977;28;20039;-69
2023/03/08 04:26:22;;;;;;;5.90;3.00;;;5.00;99.90;;;;;;4970113;28;20458;-70
2023/03/08 04:28:48;;;;;;;5.45;2.92;;;4.90;99.90;;;;;;4953394;28;20027;-69
2023/03/08 04:31:17;;;;;;;7.07;3.70;;;5.00;99.90;;;;;;4969462;28;20535;-69
2023/03/08 04:33:44;;;;;;;5.85;2.47;;;4.90;99.90;;;;;;4953899;28;20031;-69
2023/03/08 04:36:10;;;;;;;7.03;2.65;;;4.90;99.90;;;;;;4969237;28;20027;-70
2023/03/08 04:38:36;;;;;;;6.65;3.00;;;4.90;99.90;;;;;;4954986;28;20053;-70
2023/03/08 04:41:10;;;;;;;7.80;4.20;;;4.90;99.90;;;;;;4970508;28;20435;-69
2023/03/08 04:43:38;;;;;;;8.13;3.13;;;4.90;99.90;;;;;;4955127;28;20110;-70
2023/03/08 04:46:06;;;;;;;5.78;2.80;;;4.80;99.90;;;;;;4985375;28;20113;-70
2023/03/08 04:48:32;;;;;;;5.78;2.90;;;4.90;99.90;;;;;;4954558;28;20035;-70
2023/03/08 04:51:02;;;;;;;5.07;3.35;;;4.90;99.90;;;;;;4970308;28;20026;-70
2023/03/08 04:53:29;;;;;;;14.25;4.53;;;4.80;99.90;;;;;;4953625;28;20503;-70
2023/03/08 04:55:55;;;;;;;8.70;3.35;;;4.80;99.90;;;;;;4970207;28;20031;-70
2023/03/08 04:58:21;;;;;;;9.32;3.58;;;4.80;99.90;;;;;;4954625;28;20102;-70
2023/03/08 05:00:47;;;;;;;7.05;3.03;;;4.70;99.90;;;;;;5000798;28;20498;-70
2023/03/08 05:03:14;;;;;;;9.02;2.88;;;4.80;99.90;;;;;;4972956;28;20027;-70
2023/03/08 05:05:52;;;;;;;11.52;3.83;;;4.80;99.90;;;;;;4976992;28;20027;-70
2023/03/08 05:08:18;;;;;;;12.65;3.85;;;4.70;99.90;;;;;;4954461;28;20031;-70
2023/03/08 05:11:03;;;;;;;11.77;4.20;;;4.70;99.90;;;;;;4969179;28;20042;-69
2023/03/08 05:13:32;;;;;;;7.25;3.60;;;4.70;99.90;;;;;;4971137;28;20050;-69
2023/03/08 05:15:59;;;;;;;7.47;3.75;;;4.70;99.90;;;;;;4971829;28;20023;-69
2023/03/08 05:18:24;;;;;;;7.88;3.75;;;4.70;99.90;;;;;;4970364;28;20046;-69
2023/03/08 05:21:00;;;;;;;4.22;3.17;;;4.70;99.90;;;;;;5000802;28;20430;-69
2023/03/08 05:23:27;;;;;;;10.38;4.03;;;4.70;99.90;;;;;;4969013;28;20033;-70
2023/03/08 05:25:56;;;;;;;6.15;2.70;;;4.70;99.90;;;;;;5000825;28;20034;-69
2023/03/08 05:28:25;;;;;;;6.93;4.15;;;4.80;99.90;;;;;;4965743;28;20027;-70
2023/03/08 05:31:11;;;;;;;13.25;5.13;;;4.70;99.90;;;;;;4963713;28;20066;-69
2023/03/08 05:33:38;;;;;;;8.02;3.88;;;4.70;99.90;;;;;;4960339;28;20037;-69
2023/03/08 05:36:05;;;;;;;8.65;3.58;;;4.80;99.90;;;;;;4939689;28;20063;-69
2023/03/08 05:38:32;;;;;;;7.63;4.03;;;4.70;99.90;;;;;;4957470;28;20027;-69
2023/03/08 05:41:04;;;;;;;7.88;3.13;;;4.70;99.90;;;;;;4963558;28;20023;-69
2023/03/08 05:43:30;;;;;;;6.82;3.22;;;4.80;99.90;;;;;;4977872;28;20027;-69
2023/03/08 05:46:12;;;;;;;12.10;4.22;;;4.70;99.90;;;;;;5002565;28;20019;-69
2023/03/08 05:48:38;;;;;;;9.77;4.85;;;4.70;99.90;;;;;;4964517;28;20034;-73
2023/03/08 05:51:09;;;;;;;7.85;3.50;;;4.70;99.90;;;;;;4967950;28;20022;-73
2023/03/08 05:53:38;;;;;;;7.63;3.75;;;4.70;99.90;;;;;;4997058;28;20046;-72
2023/03/08 05:56:21;;;;;;;10.32;4.22;;;4.70;99.90;;;;;;4970995;28;20026;-72
2023/03/08 05:58:47;;;;;;;10.77;3.90;;;4.70;99.90;;;;;;4962767;28;20034;-73
2023/03/08 06:01:22;;;;;;;10.18;4.63;;;4.60;99.90;;;;;;4969368;28;20019;-73
2023/03/08 06:03:51;;;;;;;6.78;3.53;;;4.60;99.90;;;;;;4964268;28;20050;-73
2023/03/08 06:06:19;;;;;;;15.55;3.67;;;4.60;99.90;;;;;;4967653;28;20439;-73
2023/03/08 06:08:55;;;;;;;8.68;3.47;;;4.50;99.90;;;;;;4963429;28;20522;-74
2023/03/08 06:11:21;;;;;;;8.07;4.88;;;4.50;99.90;;;;;;4955258;28;20443;-73
2023/03/08 06:13:47;;;;;;;11.10;4.28;;;4.50;99.90;;;;;;4966840;28;20027;-73
2023/03/08 06:16:13;;;;;;;10.18;4.88;;;4.50;99.90;;;;;;4967871;28;20027;-74
2023/03/08 06:18:41;;;;;;;9.23;4.13;;;4.50;99.90;;;;;;4962585;28;20035;-74
2023/03/08 06:21:12;;;;;;;8.20;3.83;;;4.50;99.90;;;;;;4969500;28;20030;-73
2023/03/08 06:23:38;;;;;;;;;;;4.50;99.90;;;;;;4963453;28;20042;-73
2023/03/08 06:26:06;;;;;;;8.52;3.63;;;4.50;99.90;;;;;;4970275;28;19914;-75
2023/03/08 06:28:32;;;;;;;6.13;4.00;;;4.50;99.90;;;;;;4961711;28;20061;-77
2023/03/08 06:30:58;;;;;;;13.88;3.83;;;4.40;99.90;;;;;;4969340;28;20050;-73
2023/03/08 06:33:28;;;;;;;8.80;3.42;;;4.40;99.90;;;;;;4959815;28;20034;-71
2023/03/08 06:36:10;;;;;;;12.48;4.75;;;4.40;99.90;;;;;;4956815;28;20030;-71
2023/03/08 06:38:38;;;;;;;10.98;4.63;;;4.40;99.90;;;;;;4961901;28;20027;-73
2023/03/08 06:41:06;;;;;;;9.27;3.70;;;4.40;99.90;;;;;;4968673;28;20027;-73
2023/03/08 06:43:32;;;;;;;8.30;4.65;;;4.50;99.90;;;;;;4961724;28;20523;-74
2023/03/08 06:46:03;;;;;;;8.18;3.67;;;4.40;99.90;;;;;;4970694;28;20580;-74
2023/03/08 06:48:29;;;;;;;11.45;4.93;;;4.50;99.90;;;;;;4961229;28;20607;-73
2023/03/08 06:50:55;;;;;;;8.43;2.92;;;4.50;99.90;;;;;;4970250;28;20039;-76
2023/03/08 06:53:21;;;;;;;8.85;3.22;;;4.50;99.90;;;;;;4963495;28;20089;-74
2023/03/08 06:55:46;;;;;;;15.23;3.80;;;4.60;99.90;;;;;;4969061;28;20039;-74
2023/03/08 06:58:12;;;;;;;8.30;4.22;;;4.60;99.90;;;;;;4964784;28;20049;-73
2023/03/08 07:00:44;;;;;;;12.75;4.60;;;4.60;99.90;;;;;;4953029;28;20457;-73
2023/03/08 07:03:13;;;;;;;11.23;4.60;;;4.60;99.90;;;;;;4967078;28;20030;-71
2023/03/08 07:05:39;;;;;;;6.78;4.18;;;4.60;99.90;;;;;;4967261;28;20046;-72
2023/03/08 07:08:06;;;;;;;7.95;4.50;;;4.60;99.90;;;;;;4959218;28;20158;-73
2023/03/08 07:10:33;;;;;;;6.13;2.90;;;4.60;99.90;;;;;;4969948;28;20031;-74
2023/03/08 07:12:59;;;;;;;7.85;3.47;;;4.60;99.90;;;;;;4957839;28;20035;-73
2023/03/08 07:15:25;;;;;;;6.60;3.22;;;4.60;99.90;;;;;;4970630;28;20140;-73
2023/03/08 07:17:54;;;;;;;9.48;3.80;;;4.60;99.90;;;;;;4959229;28;20023;-74
2023/03/08 07:20:22;;;;;;;8.30;3.75;;;4.60;99.90;;;;;;4969834;28;20034;-73
2023/03/08 07:22:48;;;;;;;11.15;3.85;;;4.60;99.90;;;;;;4958041;28;20054;-74
2023/03/08 07:25:17;;;;;;;12.07;4.60;;;4.60;99.90;;;;;;4969776;28;20034;-74
2023/03/08 07:27:43;;;;;;;10.40;3.83;;;4.70;99.90;;;;;;4957725;28;20063;-74
2023/03/08 07:30:12;;;;;;;6.63;3.50;;;4.70;99.90;;;;;;4970289;28;20376;-73
2023/03/08 07:32:41;;;;;;;5.53;3.40;;;4.70;99.90;;;;;;4959568;28;20075;-74
2023/03/08 07:35:09;;;;;;;10.27;3.70;;;4.70;99.90;;;;;;4970645;28;20550;-73
2023/03/08 07:37:35;;;;;;;10.38;4.88;;;4.60;99.90;;;;;;4959349;28;20027;-73
2023/03/08 07:40:03;;;;;;;9.80;4.18;;;4.60;99.90;;;;;;4968458;28;20041;-74
2023/03/08 07:42:29;;;;;;;7.38;3.45;;;4.60;99.90;;;;;;4959145;28;20399;-73
2023/03/08 07:44:55;;;;;;;9.30;4.03;;;4.50;99.90;;;;;;4968647;28;20042;-73
2023/03/08 07:47:21;;;;;;;24.58;5.30;;;4.20;99.90;;;;;;4961210;28;20521;-73
2023/03/08 07:49:47;;;;;;;9.13;4.60;;;4.10;99.90;;;;;;4989088;23;20050;-70
2023/03/08 07:52:13;;;;;;;10.18;5.53;;;4.00;99.90;;;;;;4992214;28;20034;-70
2023/03/08 07:54:38;;;;;;;10.25;4.80;;;3.90;99.90;;;;;;4988868;28;20030;-70
2023/03/08 07:57:04;;;;;;;11.05;4.43;;;3.70;99.90;;;;;;4993895;28;20026;-70
2023/03/08 07:59:30;;;;;;;11.65;5.32;;;3.60;99.90;;;;;;5003415;28;20084;-70
2023/03/08 08:01:57;;;;;;;8.45;3.78;;;3.50;99.90;;;;;;4992257;28;20062;-70
2023/03/08 08:04:22;;;;;;;8.20;3.75;;;3.40;99.90;;;;;;4988620;28;20034;-69
2023/03/08 08:06:49;;;;;;;5.47;3.25;;;3.40;99.90;;;;;;4991952;28;20634;-71
2023/03/08 08:09:16;;;;;;;7.95;4.50;;;3.40;99.90;;;;;;4987845;28;20030;-70
2023/03/08 08:11:42;;;;;;;8.70;3.53;;;3.40;99.90;;;;;;4993611;28;20061;-69
2023/03/08 08:14:08;;;;;;;8.57;4.07;;;3.30;99.90;;;;;;4991724;28;20034;-70
2023/03/08 08:16:34;;;;;;;8.75;4.18;;;3.30;99.90;;;;;;4993737;28;20026;-71
2023/03/08 08:19:00;;;;;;;11.95;4.35;;;3.30;99.90;;;;;;4988729;28;20042;-71
2023/03/08 08:21:25;;;;;;;13.50;3.88;;;3.20;99.90;;;;;;4991862;28;20034;-70
2023/03/08 08:23:52;;;;;;;9.15;5.30;;;3.20;99.90;;;;;;4988734;28;20479;-70
2023/03/08 08:26:20;;;;;;;12.27;4.15;;;3.10;99.90;;;;;;4992995;28;20042;-71
2023/03/08 08:28:51;;;;;;;8.93;4.07;;;3.00;99.90;;;;;;4989197;28;20038;-70
2023/03/08 08:31:22;;;;;;;7.70;3.72;;;3.00;99.90;;;;;;4984269;28;20061;-70
2023/03/08 08:33:48;;;;;;;9.85;4.72;;;2.90;99.90;;;;;;4987784;28;20498;-71
2023/03/08 08:36:19;;;;;;;11.82;6.07;;;2.90;99.90;;;;;;4993121;28;20058;-71
2023/03/08 08:38:45;;;;;;;8.75;3.55;;;2.90;99.90;;;;;;4988941;28;20431;-70
2023/03/08 08:41:14;;;;;;;19.35;3.67;;;2.90;99.90;;;;;;4976188;28;20050;-70
2023/03/08 08:43:40;;;;;;;9.38;4.25;;;2.80;99.90;;;;;;4991287;28;20042;-71
2023/03/08 08:46:06;;;;;;;9.55;5.32;;;2.70;99.90;;;;;;4992882;28;20034;-76
2023/03/08 08:48:33;;;;;;;11.48;5.00;;;2.70;99.90;;;;;;4990169;28;20042;-73
2023/03/08 08:50:59;;;;;;;7.90;4.82;;;2.60;99.90;;;;;;4991200;28;20502;-71
2023/03/08 08:53:26;;;;;;;11.35;4.75;;;2.60;99.90;;;;;;4989858;28;20030;-71
2023/03/08 08:55:52;;;;;;;13.05;4.30;;;2.50;99.90;;;;;;4981818;28;20027;-73
2023/03/08 08:58:18;;;;;;;5.57;3.05;;;2.40;99.90;;;;;;4991528;28;20023;-80
2023/03/08 09:00:47;;;;;;;20.63;5.93;;;2.30;99.90;;;;;;4985370;28;20495;-74
2023/03/08 09:03:12;;;;;;;12.07;4.25;;;2.30;99.90;;;;;;5006662;28;20113;-73
2023/03/08 09:05:41;;;;;;;7.57;3.92;;;2.30;99.90;;;;;;4987644;28;20534;-76
2023/03/08 09:08:08;;;;;;;11.77;4.10;;;2.30;99.90;;;;;;4987902;28;20117;-69
2023/03/08 09:10:37;;;;;;;8.30;4.05;;;2.30;99.90;;;;;;4987980;28;20031;-75
2023/03/08 09:13:03;;;;;;;7.15;3.15;;;2.30;99.90;;;;;;4989276;28;20027;-75
2023/03/08 09:15:29;;;;;;;11.40;4.45;;;2.30;99.90;;;;;;4988618;28;20035;-73
2023/03/08 09:17:55;;;;;;;14.65;5.03;;;2.40;99.90;;;;;;4989206;28;20133;-77
2023/03/08 09:20:21;;;;;;;16.05;5.78;;;2.40;99.90;;;;;;4989159;28;20053;-77
2023/03/08 09:22:47;;;;;;;7.03;4.10;;;2.50;99.90;;;;;;4988439;28;20026;-76
2023/03/08 09:25:13;;;;;;;13.13;4.22;;;2.60;99.90;;;;;;4990439;28;20478;-72
2023/03/08 09:27:41;;;;;;;8.25;3.88;;;2.60;99.90;;;;;;4991010;28;20037;-77
2023/03/08 09:30:13;;;;;;;10.52;4.63;;;2.60;99.90;;;;;;4989726;28;20076;-78
2023/03/08 09:32:39;;;;;;;7.50;4.35;;;2.60;99.90;;;;;;4991020;28;20031;-74
2023/03/08 09:35:05;;;;;;;10.05;4.13;;;2.60;99.90;;;;;;4991547;28;20027;-75
2023/03/08 09:37:32;;;;;;;9.63;5.82;;;2.70;99.90;;;;;;4980679;28;20386;-78
2023/03/08 09:39:58;;;;;;;8.80;4.20;;;2.70;99.90;;;;;;4971482;28;20499;-79
2023/03/08 09:42:32;;;;;;;6.28;4.38;;;2.70;99.90;;;;;;4984893;28;20031;-82
2023/03/08 09:45:21;;;;;;;5.70;3.45;;;2.80;99.90;;;;;;4990487;28;20190;-76
2023/03/08 09:48:21;;;;;;;9.02;3.78;;;2.80;99.90;;;;;;4986511;28;20026;-76
2023/03/08 09:50:58;;;;;;;3.65;2.53;;;2.90;99.90;;;;;;4972735;28;20391;-76
2023/03/08 09:53:33;;;;;;;10.48;4.35;;;3.00;99.90;;;;;;4983498;28;20018;-74
2023/03/08 09:56:19;;;;;;;8.13;2.97;;;3.00;99.90;;;;;;4983517;28;20038;-71
2023/03/08 09:59:10;;;;;;;7.55;4.50;;;3.00;99.90;;;;;;4990538;28;20022;-76
2023/03/08 10:02:13;;;;;;;5.82;2.95;;;3.10;99.90;;;;;;4982547;28;20390;-74
2023/03/08 10:04:57;;;;;;;6.32;3.30;;;3.20;99.90;;;;;;4986014;28;20034;-75
2023/03/08 10:08:13;;;;;;;11.27;3.08;;;3.30;99.90;;;;;;4984859;28;20092;-75
2023/03/08 10:10:54;;;;;;;4.90;3.80;;;3.40;99.90;;;;;;4972599;28;20054;-76
2023/03/08 10:13:46;;;;;;;6.32;3.45;;;3.50;99.90;;;;;;4983502;28;20052;-74
2023/03/08 10:16:24;;;;;;;11.50;3.92;;;3.60;99.90;;;;;;4974205;28;20042;-74
2023/03/08 10:18:52;;;;;;;13.80;4.65;;;3.70;99.90;;;;;;4989919;28;20037;-74
2023/03/08 10:21:21;;;;;;;6.97;3.05;;;3.70;99.90;;;;;;4982864;28;20165;-72
2023/03/08 10:24:11;;;;;;;4.43;2.55;;;3.80;99.90;;;;;;4989546;28;20568;-74
2023/03/08 10:26:37;;;;;;;9.57;4.22;;;3.80;99.90;;;;;;4983039;28;20506;-74
2023/03/08 10:29:03;;;;;;;5.25;2.65;;;3.80;99.90;;;;;;4989442;28;20088;-76
2023/03/08 10:31:32;;;;;;;10.15;3.95;;;3.90;99.90;;;;;;4984136;28;20548;-75
2023/03/08 10:34:27;;;;;;;5.70;2.20;;;3.90;99.90;;;;;;4990863;28;20394;-74
2023/03/08 10:37:05;;;;;;;4.95;3.15;;;4.00;99.90;;;;;;4989354;28;20157;-75
2023/03/08 10:39:31;;;;;;;7.57;3.55;;;4.00;99.90;;;;;;4991316;28;20502;-76
2023/03/08 10:42:00;;;;;;;14.40;3.35;;;4.00;99.90;;;;;;4986928;28;20073;-76
2023/03/08 10:44:53;;;;;;;7.05;3.22;;;4.00;99.90;;;;;;4994078;28;20030;-76
2023/03/08 10:47:27;;;;;;;6.25;3.53;;;4.00;99.90;;;;;;4989370;28;20038;-74
2023/03/08 10:50:16;;;;;;;5.82;3.63;;;4.00;99.90;;;;;;4990409;28;20498;-74
2023/03/08 10:52:46;;;;;;;8.18;4.22;;;4.10;99.90;;;;;;4986357;28;20114;-73
2023/03/08 10:55:28;;;;;;;7.82;3.33;;;4.10;99.90;;;;;;4988815;28;20026;-75
2023/03/08 10:57:59;;;;;;;21.65;3.60;;;4.10;99.90;;;;;;4986787;28;20041;-75
2023/03/08 11:00:43;;;;;;;7.28;3.47;;;4.10;99.90;;;;;;4988418;28;20030;-76
2023/03/08 11:03:21;;;;;;;11.85;4.07;;;4.20;99.90;;;;;;4989696;28;20038;-76
2023/03/08 11:06:14;;;;;;;7.28;3.80;;;4.20;99.90;;;;;;4984309;28;20031;-77
2023/03/08 11:08:53;;;;;;;5.32;3.13;;;4.20;99.90;;;;;;4984351;28;20509;-76
2023/03/08 11:11:19;;;;;;;10.90;4.80;;;4.20;99.90;;;;;;4983377;28;20045;-76
2023/03/08 11:13:50;;;;;;;18.17;4.57;;;4.30;99.90;;;;;;4989425;28;20019;-74
2023/03/08 11:16:41;;;;;;;6.03;3.50;;;4.30;99.90;;;;;;4983469;28;20034;-74
2023/03/08 11:19:33;;;;;;;7.10;3.60;;;4.20;99.90;;;;;;4990603;28;20375;-78
2023/03/08 11:22:31;;;;;;;8.07;4.03;;;4.30;99.90;;;;;;4983395;28;20030;-80
2023/03/08 11:25:03;;;;;;;8.43;2.95;;;4.30;99.90;;;;;;4990238;28;20034;-74
2023/03/08 11:27:38;;;;;;;;;;;4.40;99.90;;;;;;4971120;28;20038;-79
2023/03/08 11:30:54;;;;;;;5.53;2.95;;;4.40;99.90;;;;;;4993492;28;19965;-76
2023/03/08 11:33:41;;;;;;;11.48;3.90;;;4.50;99.90;;;;;;4992147;28;20434;-77
2023/03/08 11:36:21;;;;;;;8.13;2.97;;;4.50;99.90;;;;;;4987461;28;20390;-74
2023/03/08 11:39:10;;;;;;;10.60;5.22;;;4.50;99.90;;;;;;4994195;28;20026;-76
2023/03/08 11:42:07;;;;;;;10.27;4.68;;;4.60;99.90;;;;;;4985408;28;20654;-80
2023/03/08 11:44:42;;;;;;;9.35;4.43;;;4.60;99.90;;;;;;4988375;28;20041;-80
2023/03/08 11:47:42;;;;;;;13.43;6.32;;;4.60;99.90;;;;;;4985201;28;20898;-76
2023/03/08 11:50:23;;;;;;;10.30;3.72;;;4.70;99.90;;;;;;4991675;28;20042;-75
2023/03/08 11:53:22;;;;;;;15.93;6.60;;;4.70;99.90;;;;;;4989812;28;20031;-75
2023/03/08 11:56:09;;;;;;;12.10;5.32;;;4.80;99.90;;;;;;4975101;28;20073;-75
2023/03/08 11:59:16;;;;;;;9.18;4.95;;;4.80;99.90;;;;;;4978747;28;20026;-75
2023/03/08 12:01:57;;;;;;;7.55;4.00;;;4.90;99.90;;;;;;4964645;28;20383;-75
2023/03/08 12:05:13;;;;;;;12.75;5.45;;;5.00;99.90;;;;;;4985212;28;20044;-77
2023/03/08 12:08:04;;;;;;;9.85;4.28;;;5.10;99.90;;;;;;4974790;28;20027;-76
2023/03/08 12:10:43;;;;;;;9.70;4.72;;;5.20;99.90;;;;;;4985573;28;20026;-76
2023/03/08 12:13:32;;;;;;;8.73;5.03;;;5.20;99.90;;;;;;4985843;28;20121;-77
2023/03/08 12:16:23;;;;;;;10.80;5.38;;;5.30;99.90;;;;;;4989454;28;20218;-77
2023/03/08 12:19:40;;;;;;;7.88;4.00;;;5.30;99.90;;;;;;4980330;28;20054;-77
2023/03/08 12:22:49;;;;;;;8.30;4.00;;;5.40;99.90;;;;;;4984293;28;20446;-77
2023/03/08 12:25:33;;;;;;;8.52;4.75;;;5.60;99.90;;;;;;4993123;28;20089;-77
2023/03/08 12:27:59;;;;;;;12.02;4.40;;;5.70;99.90;;;;;;4985281;28;20045;-78
2023/03/08 12:30:39;;;;;;;23.02;6.30;;;5.70;99.90;;;;;;4992944;28;20101;-77
2023/03/08 12:33:11;;;;;;;8.57;4.67;;;5.80;99.90;;;;;;4985305;28;20027;-77
2023/03/08 12:35:50;;;;;;;8.18;4.80;;;5.80;99.90;;;;;;4991961;28;20034;-77
2023/03/08 12:38:18;;;;;;;14.90;4.82;;;5.90;99.90;;;;;;4983086;28;20088;-77
2023/03/08 12:40:50;;;;;;;14.30;4.28;;;6.00;99.90;;;;;;4992970;28;20565;-77
2023/03/08 12:43:19;;;;;;;11.98;5.05;;;6.10;99.90;;;;;;4983713;28;20097;-77
2023/03/08 12:46:10;;;;;;;10.25;4.30;;;6.20;99.90;;;;;;4992819;28;20038;-77
2023/03/08 12:48:43;;;;;;;9.02;4.30;;;6.30;99.90;;;;;;4984679;28;20774;-76
2023/03/08 12:51:11;;;;;;;17.15;5.38;;;6.40;99.90;;;;;;4992663;28;20510;-77
2023/03/08 12:53:49;;;;;;;14.00;5.80;;;6.50;99.90;;;;;;4985219;28;20057;-77
2023/03/08 12:56:23;;;;;;;12.93;4.57;;;6.60;99.90;;;;;;4992476;28;20045;-76
2023/03/08 12:58:51;;;;;;;11.15;5.57;;;6.70;99.90;;;;;;4967251;28;20030;-77
2023/03/08 13:01:37;;;;;;;9.68;4.30;;;6.80;99.90;;;;;;4984474;28;20066;-76
2023/03/08 13:04:24;;;;;;;7.78;4.80;;;6.90;99.90;;;;;;4984465;28;20026;-76
2023/03/08 13:07:05;;;;;;;7.03;4.25;;;7.00;99.90;;;;;;4992632;28;20604;-77
2023/03/08 13:09:45;;;;;;;8.27;3.42;;;7.20;99.90;;;;;;4986355;28;20030;-77
2023/03/08 13:12:14;;;;;;;6.63;3.47;;;7.20;99.90;;;;;;4988865;28;20394;-77
2023/03/08 13:15:00;;;;;;;10.40;4.10;;;7.30;99.90;;;;;;4987022;28;20026;-77
2023/03/08 13:17:43;;;;;;;11.38;4.47;;;7.30;99.90;;;;;;4972221;28;20046;-76
2023/03/08 13:20:27;;;;;;;10.25;3.92;;;7.40;99.90;;;;;;4989511;28;20034;-76